sensor_id;sensor_type;location;lat;lon;timestamp;temperature;humidity
48686;DHT22;34485;51.536;3.816;2023-05-10T00:00:27;12.40;99.90
48686;DHT22;34485;51.536;3.816;2023-05-10T00:02:52;12.40;99.90
48686;DHT22;34485;51.536;3.816;2023-05-10T00:05:18;12.40;99.90
48686;DHT22;34485;51.536;3.816;2023-05-10T00:07:44;12.50;99.90
48686;DHT22;34485;51.536;3.816;2023-05-10T00:10:10;12.50;99.90
48686;DHT22;34485;51.536;3.816;2023-05-10T00:12:36;12.50;99.90
48686;DHT22;34485;51.536;3.816;2023-05-10T00:15:02;12.50;99.90
48686;DHT22;34485;51.536;3.816;2023-05-10T00:17:28;12.50;99.90
48686;DHT22;34485;51.536;3.816;2023-05-10T00:19:54;12.50;99.90
48686;DHT22;34485;51.536;3.816;2023-05-10T00:22:19;12.50;99.90
48686;DHT22;34485;51.536;3.816;2023-05-10T00:24:45;12.50;99.90
48686;DHT22;34485;51.536;3.816;2023-05-10T00:27:11;12.50;99.90
48686;DHT22;34485;51.536;3.816;2023-05-10T00:29:36;12.50;99.90
48686;DHT22;34485;51.536;3.816;2023-05-10T00:32:02;12.60;99.90
48686;DHT22;34485;51.536;3.816;2023-05-10T00:34:28;12.50;99.90
48686;DHT22;34485;51.536;3.816;2023-05-10T00:36:53;12.50;99.90
48686;DHT22;34485;51.536;3.816;2023-05-10T00:39:19;12.50;99.90
48686;DHT22;34485;51.536;3.816;2023-05-10T00:41:44;12.60;99.90
48686;DHT22;34485;51.536;3.816;2023-05-10T00:44:10;12.60;99.90
48686;DHT22;34485;51.536;3.816;2023-05-10T00:46:36;12.60;99.90
48686;DHT22;34485;51.536;3.816;2023-05-10T00:49:02;12.60;99.90
48686;DHT22;34485;51.536;3.816;2023-05-10T00:51:27;12.70;99.90
48686;DHT22;34485;51.536;3.816;2023-05-10T00:53:53;12.60;99.90
48686;DHT22;34485;51.536;3.816;2023-05-10T00:56:21;12.60;99.90
48686;DHT22;34485;51.536;3.816;2023-05-10T00:58:48;12.60;99.90
48686;DHT22;34485;51.536;3.816;2023-05-10T01:01:14;12.60;99.90
48686;DHT22;34485;51.536;3.816;2023-05-10T01:03:40;12.60;99.90
48686;DHT22;34485;51.536;3.816;2023-05-10T01:06:07;12.60;99.90
48686;DHT22;34485;51.536;3.816;2023-05-10T01:08:33;12.60;99.90
48686;DHT22;34485;51.536;3.816;2023-05-10T01:10:59;12.60;99.90
48686;DHT22;34485;51.536;3.816;2023-05-10T01:13:37;12.60;99.90
48686;DHT22;34485;51.536;3.816;2023-05-10T01:16:05;12.60;99.90
48686;DHT22;34485;51.536;3.816;2023-05-10T01:18:34;12.60;99.90
48686;DHT22;34485;51.536;3.816;2023-05-10T01:27:17;12.60;99.90
48686;DHT22;34485;51.536;3.816;2023-05-10T01:29:58;12.60;99.90
48686;DHT22;34485;51.536;3.816;2023-05-10T01:35:46;12.50;99.90
48686;DHT22;34485;51.536;3.816;2023-05-10T01:46:53;12.60;99.90
48686;DHT22;34485;51.536;3.816;2023-05-10T01:49:26;12.60;99.90
48686;DHT22;34485;51.536;3.816;2023-05-10T01:51:59;12.60;99.90
48686;DHT22;34485;51.536;3.816;2023-05-10T01:54:27;12.50;99.90
48686;DHT22;34485;51.536;3.816;2023-05-10T01:57:02;12.50;99.90
48686;DHT22;34485;51.536;3.816;2023-05-10T01:59:33;12.50;99.90
48686;DHT22;34485;51.536;3.816;2023-05-10T02:02:02;12.50;99.90
48686;DHT22;34485;51.536;3.816;2023-05-10T02:04:28;12.50;99.90
48686;DHT22;34485;51.536;3.816;2023-05-10T02:06:54;12.50;99.90
48686;DHT22;34485;51.536;3.816;2023-05-10T02:09:21;12.50;99.90
48686;DHT22;34485;51.536;3.816;2023-05-10T02:11:48;12.50;99.90
48686;DHT22;34485;51.536;3.816;2023-05-10T02:14:15;12.50;99.90
48686;DHT22;34485;51.536;3.816;2023-05-10T02:16:42;12.50;99.90
48686;DHT22;34485;51.536;3.816;2023-05-10T02:19:09;12.50;99.90
48686;DHT22;34485;51.536;3.816;2023-05-10T02:21:35;12.50;99.90
48686;DHT22;34485;51.536;3.816;2023-05-10T02:24:03;12.50;99.90
48686;DHT22;34485;51.536;3.816;2023-05-10T02:26:31;12.50;99.90
48686;DHT22;34485;51.536;3.816;2023-05-10T02:28:59;12.50;99.90
48686;DHT22;34485;51.536;3.816;2023-05-10T02:31:25;12.50;99.90
48686;DHT22;34485;51.536;3.816;2023-05-10T02:33:51;12.50;99.90
48686;DHT22;34485;51.536;3.816;2023-05-10T02:36:20;12.50;99.90
48686;DHT22;34485;51.536;3.816;2023-05-10T02:38:47;12.50;99.90
48686;DHT22;34485;51.536;3.816;2023-05-10T02:41:14;12.50;99.90
48686;DHT22;34485;51.536;3.816;2023-05-10T02:43:40;12.50;99.90
48686;DHT22;34485;51.536;3.816;2023-05-10T02:46:07;12.60;99.90
48686;DHT22;34485;51.536;3.816;2023-05-10T02:48:32;12.50;99.90
48686;DHT22;34485;51.536;3.816;2023-05-10T02:51:04;12.50;99.90
48686;DHT22;34485;51.536;3.816;2023-05-10T02:53:33;12.50;99.90
48686;DHT22;34485;51.536;3.816;2023-05-10T02:56:04;12.50;99.90
48686;DHT22;34485;51.536;3.816;2023-05-10T02:58:32;12.50;99.90
48686;DHT22;34485;51.536;3.816;2023-05-10T03:00:58;12.50;99.90
48686;DHT22;34485;51.536;3.816;2023-05-10T03:03:24;12.50;99.90
48686;DHT22;34485;51.536;3.816;2023-05-10T03:05:50;12.50;99.90
48686;DHT22;34485;51.536;3.816;2023-05-10T03:08:16;12.50;99.90
48686;DHT22;34485;51.536;3.816;2023-05-10T03:10:50;12.50;99.90
48686;DHT22;34485;51.536;3.816;2023-05-10T03:13:44;12.50;99.90
48686;DHT22;34485;51.536;3.816;2023-05-10T03:16:24;12.50;99.90
48686;DHT22;34485;51.536;3.816;2023-05-10T03:19:22;12.50;99.90
48686;DHT22;34485;51.536;3.816;2023-05-10T03:21:52;12.50;99.90
48686;DHT22;34485;51.536;3.816;2023-05-10T03:24:21;12.40;99.90
48686;DHT22;34485;51.536;3.816;2023-05-10T03:26:47;12.40;99.90
48686;DHT22;34485;51.536;3.816;2023-05-10T03:29:14;12.30;99.90
48686;DHT22;34485;51.536;3.816;2023-05-10T03:31:41;12.30;99.90
48686;DHT22;34485;51.536;3.816;2023-05-10T03:34:06;12.30;99.90
48686;DHT22;34485;51.536;3.816;2023-05-10T03:36:32;12.30;99.90
48686;DHT22;34485;51.536;3.816;2023-05-10T03:38:58;12.20;99.90
48686;DHT22;34485;51.536;3.816;2023-05-10T03:41:24;12.20;99.90
48686;DHT22;34485;51.536;3.816;2023-05-10T03:43:51;12.20;99.90
48686;DHT22;34485;51.536;3.816;2023-05-10T03:46:16;12.20;99.90
48686;DHT22;34485;51.536;3.816;2023-05-10T03:48:42;12.20;99.90
48686;DHT22;34485;51.536;3.816;2023-05-10T03:51:07;12.10;99.90
48686;DHT22;34485;51.536;3.816;2023-05-10T03:53:33;12.10;99.90
48686;DHT22;34485;51.536;3.816;2023-05-10T03:55:59;12.10;99.90
48686;DHT22;34485;51.536;3.816;2023-05-10T03:58:25;12.10;99.90
48686;DHT22;34485;51.536;3.816;2023-05-10T04:00:51;12.10;99.90
48686;DHT22;34485;51.536;3.816;2023-05-10T04:03:17;12.10;99.90
48686;DHT22;34485;51.536;3.816;2023-05-10T04:05:43;12.10;99.90
48686;DHT22;34485;51.536;3.816;2023-05-10T04:08:08;12.10;99.90
48686;DHT22;34485;51.536;3.816;2023-05-10T04:10:34;12.10;99.90
48686;DHT22;34485;51.536;3.816;2023-05-10T04:13:00;12.10;99.90
48686;DHT22;34485;51.536;3.816;2023-05-10T04:15:26;12.10;99.90
48686;DHT22;34485;51.536;3.816;2023-05-10T04:17:51;11.90;99.90
48686;DHT22;34485;51.536;3.816;2023-05-10T04:20:17;11.90;99.90
48686;DHT22;34485;51.536;3.816;2023-05-10T04:22:43;11.90;99.90
48686;DHT22;34485;51.536;3.816;2023-05-10T04:25:08;11.90;99.90
48686;DHT22;34485;51.536;3.816;2023-05-10T04:27:34;11.90;99.90
48686;DHT22;34485;51.536;3.816;2023-05-10T04:30:00;11.90;99.90
48686;DHT22;34485;51.536;3.816;2023-05-10T04:32:26;11.90;99.90
48686;DHT22;34485;51.536;3.816;2023-05-10T04:34:52;11.90;99.90
48686;DHT22;34485;51.536;3.816;2023-05-10T04:37:18;12.10;99.90
48686;DHT22;34485;51.536;3.816;2023-05-10T04:39:44;12.10;99.90
48686;DHT22;34485;51.536;3.816;2023-05-10T04:42:09;12.20;99.90
48686;DHT22;34485;51.536;3.816;2023-05-10T04:44:35;12.20;99.90
48686;DHT22;34485;51.536;3.816;2023-05-10T04:47:01;12.30;99.90
48686;DHT22;34485;51.536;3.816;2023-05-10T04:49:28;12.30;99.90
48686;DHT22;34485;51.536;3.816;2023-05-10T04:51:55;12.40;99.90
48686;DHT22;34485;51.536;3.816;2023-05-10T04:54:20;12.40;99.90
48686;DHT22;34485;51.536;3.816;2023-05-10T04:56:46;12.40;99.90
48686;DHT22;34485;51.536;3.816;2023-05-10T04:59:12;12.40;99.90
48686;DHT22;34485;51.536;3.816;2023-05-10T05:01:37;12.40;99.90
48686;DHT22;34485;51.536;3.816;2023-05-10T05:04:03;12.40;99.90
48686;DHT22;34485;51.536;3.816;2023-05-10T05:06:29;12.40;99.90
48686;DHT22;34485;51.536;3.816;2023-05-10T05:08:54;12.50;99.90
48686;DHT22;34485;51.536;3.816;2023-05-10T05:11:20;12.50;99.90
48686;DHT22;34485;51.536;3.816;2023-05-10T05:13:46;12.50;99.90
48686;DHT22;34485;51.536;3.816;2023-05-10T05:16:12;12.50;99.90
48686;DHT22;34485;51.536;3.816;2023-05-10T05:18:37;12.40;99.90
48686;DHT22;34485;51.536;3.816;2023-05-10T05:21:03;12.40;99.90
48686;DHT22;34485;51.536;3.816;2023-05-10T05:23:28;12.40;99.90
48686;DHT22;34485;51.536;3.816;2023-05-10T05:25:54;12.40;99.90
48686;DHT22;34485;51.536;3.816;2023-05-10T05:28:20;12.60;99.90
48686;DHT22;34485;51.536;3.816;2023-05-10T05:30:46;12.70;99.90
48686;DHT22;34485;51.536;3.816;2023-05-10T05:33:14;12.90;99.90
48686;DHT22;34485;51.536;3.816;2023-05-10T05:35:41;13.00;99.90
48686;DHT22;34485;51.536;3.816;2023-05-10T05:38:06;13.00;99.90
48686;DHT22;34485;51.536;3.816;2023-05-10T05:40:32;13.10;99.90
48686;DHT22;34485;51.536;3.816;2023-05-10T05:42:57;13.20;99.90
48686;DHT22;34485;51.536;3.816;2023-05-10T05:45:23;13.20;99.90
48686;DHT22;34485;51.536;3.816;2023-05-10T05:47:48;13.40;99.90
48686;DHT22;34485;51.536;3.816;2023-05-10T05:50:14;13.60;99.90
48686;DHT22;34485;51.536;3.816;2023-05-10T05:52:40;13.90;99.90
48686;DHT22;34485;51.536;3.816;2023-05-10T05:55:05;14.00;99.90
48686;DHT22;34485;51.536;3.816;2023-05-10T05:57:31;14.20;99.90
48686;DHT22;34485;51.536;3.816;2023-05-10T05:59:57;14.50;99.90
48686;DHT22;34485;51.536;3.816;2023-05-10T06:02:22;14.70;99.90
48686;DHT22;34485;51.536;3.816;2023-05-10T06:04:48;14.70;99.90
48686;DHT22;34485;51.536;3.816;2023-05-10T06:07:13;14.80;99.90
48686;DHT22;34485;51.536;3.816;2023-05-10T06:09:39;14.80;99.90
48686;DHT22;34485;51.536;3.816;2023-05-10T06:12:05;14.70;99.90
48686;DHT22;34485;51.536;3.816;2023-05-10T06:14:30;14.60;99.90
48686;DHT22;34485;51.536;3.816;2023-05-10T06:16:56;14.50;99.90
48686;DHT22;34485;51.536;3.816;2023-05-10T06:19:21;14.40;99.90
48686;DHT22;34485;51.536;3.816;2023-05-10T06:21:47;14.20;99.90
48686;DHT22;34485;51.536;3.816;2023-05-10T06:24:12;14.20;99.90
48686;DHT22;34485;51.536;3.816;2023-05-10T06:26:38;14.10;99.90
48686;DHT22;34485;51.536;3.816;2023-05-10T06:29:04;14.10;99.90
48686;DHT22;34485;51.536;3.816;2023-05-10T06:31:29;14.00;99.90
48686;DHT22;34485;51.536;3.816;2023-05-10T06:33:55;13.90;99.90
48686;DHT22;34485;51.536;3.816;2023-05-10T06:36:20;13.90;99.90
48686;DHT22;34485;51.536;3.816;2023-05-10T06:38:47;13.90;99.90
48686;DHT22;34485;51.536;3.816;2023-05-10T06:41:12;13.80;99.90
48686;DHT22;34485;51.536;3.816;2023-05-10T06:43:38;13.90;99.90
48686;DHT22;34485;51.536;3.816;2023-05-10T06:46:06;13.90;99.90
48686;DHT22;34485;51.536;3.816;2023-05-10T06:48:32;14.00;99.90
48686;DHT22;34485;51.536;3.816;2023-05-10T06:50:58;14.10;99.90
48686;DHT22;34485;51.536;3.816;2023-05-10T06:53:23;14.30;99.90
48686;DHT22;34485;51.536;3.816;2023-05-10T06:55:49;14.40;99.90
48686;DHT22;34485;51.536;3.816;2023-05-10T06:58:15;14.60;99.90
48686;DHT22;34485;51.536;3.816;2023-05-10T07:00:41;14.70;99.90
48686;DHT22;34485;51.536;3.816;2023-05-10T07:03:11;14.90;99.90
48686;DHT22;34485;51.536;3.816;2023-05-10T07:05:37;15.20;99.90
48686;DHT22;34485;51.536;3.816;2023-05-10T07:08:02;15.40;99.90
48686;DHT22;34485;51.536;3.816;2023-05-10T07:12:55;15.70;99.90
48686;DHT22;34485;51.536;3.816;2023-05-10T07:15:20;16.10;99.90
48686;DHT22;34485;51.536;3.816;2023-05-10T07:17:46;16.50;99.90
48686;DHT22;34485;51.536;3.816;2023-05-10T07:20:12;16.80;99.90
48686;DHT22;34485;51.536;3.816;2023-05-10T07:22:37;17.20;99.90
48686;DHT22;34485;51.536;3.816;2023-05-10T07:25:03;17.60;99.90
48686;DHT22;34485;51.536;3.816;2023-05-10T07:27:29;17.70;99.90
48686;DHT22;34485;51.536;3.816;2023-05-10T07:29:55;17.70;99.90
48686;DHT22;34485;51.536;3.816;2023-05-10T07:32:21;17.60;99.70
48686;DHT22;34485;51.536;3.816;2023-05-10T07:34:47;17.40;99.90
48686;DHT22;34485;51.536;3.816;2023-05-10T07:37:13;17.50;99.90
48686;DHT22;34485;51.536;3.816;2023-05-10T07:39:38;17.50;99.90
48686;DHT22;34485;51.536;3.816;2023-05-10T07:42:04;17.60;99.90
48686;DHT22;34485;51.536;3.816;2023-05-10T07:44:29;17.70;99.90
48686;DHT22;34485;51.536;3.816;2023-05-10T07:46:55;18.10;99.90
48686;DHT22;34485;51.536;3.816;2023-05-10T07:49:21;18.70;99.90
48686;DHT22;34485;51.536;3.816;2023-05-10T07:56:39;19.50;99.90
48686;DHT22;34485;51.536;3.816;2023-05-10T07:59:10;19.20;95.20
48686;DHT22;34485;51.536;3.816;2023-05-10T08:01:35;19.00;95.40
48686;DHT22;34485;51.536;3.816;2023-05-10T08:04:01;18.90;96.00
48686;DHT22;34485;51.536;3.816;2023-05-10T08:06:27;18.80;95.90
48686;DHT22;34485;51.536;3.816;2023-05-10T08:08:55;18.70;95.70
48686;DHT22;34485;51.536;3.816;2023-05-10T08:11:21;18.50;95.70
48686;DHT22;34485;51.536;3.816;2023-05-10T08:13:49;18.40;96.50
48686;DHT22;34485;51.536;3.816;2023-05-10T08:16:16;18.20;95.30
48686;DHT22;34485;51.536;3.816;2023-05-10T08:18:43;18.60;96.10
48686;DHT22;34485;51.536;3.816;2023-05-10T08:28:31;20.20;99.90
48686;DHT22;34485;51.536;3.816;2023-05-10T08:53:12;21.70;83.40
48686;DHT22;34485;51.536;3.816;2023-05-10T08:55:40;21.70;85.10
48686;DHT22;34485;51.536;3.816;2023-05-10T09:00:34;20.90;99.90
48686;DHT22;34485;51.536;3.816;2023-05-10T09:20:07;17.10;99.20
48686;DHT22;34485;51.536;3.816;2023-05-10T09:22:33;17.10;99.90
48686;DHT22;34485;51.536;3.816;2023-05-10T09:25:12;16.90;99.90
48686;DHT22;34485;51.536;3.816;2023-05-10T09:27:40;16.80;99.90
48686;DHT22;34485;51.536;3.816;2023-05-10T09:30:06;16.80;99.90
48686;DHT22;34485;51.536;3.816;2023-05-10T09:32:40;16.80;99.90
48686;DHT22;34485;51.536;3.816;2023-05-10T09:35:10;16.90;99.90
48686;DHT22;34485;51.536;3.816;2023-05-10T09:37:36;17.10;99.90
48686;DHT22;34485;51.536;3.816;2023-05-10T09:40:05;17.30;99.90
48686;DHT22;34485;51.536;3.816;2023-05-10T09:42:31;17.60;99.70
48686;DHT22;34485;51.536;3.816;2023-05-10T09:50:01;20.20;94.00
48686;DHT22;34485;51.536;3.816;2023-05-10T09:53:07;19.00;94.40
48686;DHT22;34485;51.536;3.816;2023-05-10T10:02:58;19.00;99.90
48686;DHT22;34485;51.536;3.816;2023-05-10T10:05:32;18.80;95.80
48686;DHT22;34485;51.536;3.816;2023-05-10T10:07:59;18.80;96.30
48686;DHT22;34485;51.536;3.816;2023-05-10T10:10:26;18.80;94.60
48686;DHT22;34485;51.536;3.816;2023-05-10T10:12:52;18.70;94.80
48686;DHT22;34485;51.536;3.816;2023-05-10T10:15:19;18.70;95.80
48686;DHT22;34485;51.536;3.816;2023-05-10T10:35:29;18.00;96.20
48686;DHT22;34485;51.536;3.816;2023-05-10T10:37:55;17.90;97.00
48686;DHT22;34485;51.536;3.816;2023-05-10T10:40:31;17.90;98.20
48686;DHT22;34485;51.536;3.816;2023-05-10T10:42:58;18.00;97.40
48686;DHT22;34485;51.536;3.816;2023-05-10T10:56:06;19.30;95.60
48686;DHT22;34485;51.536;3.816;2023-05-10T10:58:33;19.30;94.60
48686;DHT22;34485;51.536;3.816;2023-05-10T11:01:19;19.30;94.90
48686;DHT22;34485;51.536;3.816;2023-05-10T11:06:36;19.60;95.80
48686;DHT22;34485;51.536;3.816;2023-05-10T11:09:10;19.70;93.70
48686;DHT22;34485;51.536;3.816;2023-05-10T11:11:48;20.10;94.30
48686;DHT22;34485;51.536;3.816;2023-05-10T11:14:14;20.60;92.80
48686;DHT22;34485;51.536;3.816;2023-05-10T11:16:44;20.60;92.80
48686;DHT22;34485;51.536;3.816;2023-05-10T11:19:12;20.80;99.90
48686;DHT22;34485;51.536;3.816;2023-05-10T11:21:52;20.80;92.70
48686;DHT22;34485;51.536;3.816;2023-05-10T11:24:36;20.70;91.80
48686;DHT22;34485;51.536;3.816;2023-05-10T11:27:02;20.80;91.00
48686;DHT22;34485;51.536;3.816;2023-05-10T11:29:28;21.00;90.60
48686;DHT22;34485;51.536;3.816;2023-05-10T11:31:57;21.00;90.70
48686;DHT22;34485;51.536;3.816;2023-05-10T11:34:30;21.00;90.60
48686;DHT22;34485;51.536;3.816;2023-05-10T11:36:57;20.80;90.90
48686;DHT22;34485;51.536;3.816;2023-05-10T11:39:27;20.80;91.40
48686;DHT22;34485;51.536;3.816;2023-05-10T11:41:53;20.50;90.70
48686;DHT22;34485;51.536;3.816;2023-05-10T11:44:19;20.20;91.90
48686;DHT22;34485;51.536;3.816;2023-05-10T11:46:44;20.20;92.50
48686;DHT22;34485;51.536;3.816;2023-05-10T11:49:10;20.10;91.40
48686;DHT22;34485;51.536;3.816;2023-05-10T11:51:36;19.90;91.80
48686;DHT22;34485;51.536;3.816;2023-05-10T11:54:06;20.00;92.80
48686;DHT22;34485;51.536;3.816;2023-05-10T11:56:39;19.90;93.10
48686;DHT22;34485;51.536;3.816;2023-05-10T12:03:58;19.30;93.60
48686;DHT22;34485;51.536;3.816;2023-05-10T12:06:29;19.30;94.00
48686;DHT22;34485;51.536;3.816;2023-05-10T12:08:57;19.10;93.80
48686;DHT22;34485;51.536;3.816;2023-05-10T12:11:27;19.00;95.00
48686;DHT22;34485;51.536;3.816;2023-05-10T12:13:54;18.90;94.40
48686;DHT22;34485;51.536;3.816;2023-05-10T12:16:21;18.80;94.70
48686;DHT22;34485;51.536;3.816;2023-05-10T12:19:00;18.80;95.20
48686;DHT22;34485;51.536;3.816;2023-05-10T12:21:28;18.70;95.70
48686;DHT22;34485;51.536;3.816;2023-05-10T12:23:56;18.90;96.00
48686;DHT22;34485;51.536;3.816;2023-05-10T12:26:25;19.00;95.10
48686;DHT22;34485;51.536;3.816;2023-05-10T12:28:54;19.00;95.80
48686;DHT22;34485;51.536;3.816;2023-05-10T12:31:20;19.00;94.20
48686;DHT22;34485;51.536;3.816;2023-05-10T12:33:46;19.10;95.80
48686;DHT22;34485;51.536;3.816;2023-05-10T12:36:14;19.10;94.00
48686;DHT22;34485;51.536;3.816;2023-05-10T12:38:42;19.00;93.90
48686;DHT22;34485;51.536;3.816;2023-05-10T12:41:14;18.90;95.10
48686;DHT22;34485;51.536;3.816;2023-05-10T12:43:40;18.80;94.30
48686;DHT22;34485;51.536;3.816;2023-05-10T12:46:10;18.80;96.50
48686;DHT22;34485;51.536;3.816;2023-05-10T12:48:37;18.90;96.70
48686;DHT22;34485;51.536;3.816;2023-05-10T12:51:03;19.00;96.40
48686;DHT22;34485;51.536;3.816;2023-05-10T12:53:29;18.90;94.90
48686;DHT22;34485;51.536;3.816;2023-05-10T12:55:55;18.80;95.30
48686;DHT22;34485;51.536;3.816;2023-05-10T12:58:21;18.60;95.80
48686;DHT22;34485;51.536;3.816;2023-05-10T13:00:47;18.50;96.20
48686;DHT22;34485;51.536;3.816;2023-05-10T13:03:12;18.40;96.50
48686;DHT22;34485;51.536;3.816;2023-05-10T13:08:04;18.30;96.70
48686;DHT22;34485;51.536;3.816;2023-05-10T13:10:31;18.30;97.80
48686;DHT22;34485;51.536;3.816;2023-05-10T13:12:57;18.20;96.50
48686;DHT22;34485;51.536;3.816;2023-05-10T13:15:23;18.30;98.30
48686;DHT22;34485;51.536;3.816;2023-05-10T13:17:49;18.20;97.20
48686;DHT22;34485;51.536;3.816;2023-05-10T13:20:15;18.00;98.30
48686;DHT22;34485;51.536;3.816;2023-05-10T13:22:42;18.10;98.70
48686;DHT22;34485;51.536;3.816;2023-05-10T13:25:08;18.10;98.40
48686;DHT22;34485;51.536;3.816;2023-05-10T13:27:34;18.10;98.30
48686;DHT22;34485;51.536;3.816;2023-05-10T13:29:59;18.00;98.20
48686;DHT22;34485;51.536;3.816;2023-05-10T13:32:25;17.90;98.40
48686;DHT22;34485;51.536;3.816;2023-05-10T13:34:51;17.80;98.80
48686;DHT22;34485;51.536;3.816;2023-05-10T13:37:17;17.90;99.60
48686;DHT22;34485;51.536;3.816;2023-05-10T13:39:42;17.90;99.10
48686;DHT22;34485;51.536;3.816;2023-05-10T13:42:08;17.80;99.10
48686;DHT22;34485;51.536;3.816;2023-05-10T13:44:34;17.80;98.70
48686;DHT22;34485;51.536;3.816;2023-05-10T13:46:59;17.90;99.20
48686;DHT22;34485;51.536;3.816;2023-05-10T13:49:25;17.90;98.40
48686;DHT22;34485;51.536;3.816;2023-05-10T13:51:51;17.90;98.60
48686;DHT22;34485;51.536;3.816;2023-05-10T13:54:17;18.00;98.70
48686;DHT22;34485;51.536;3.816;2023-05-10T13:56:45;18.20;98.90
48686;DHT22;34485;51.536;3.816;2023-05-10T13:59:12;18.40;98.70
48686;DHT22;34485;51.536;3.816;2023-05-10T14:01:39;18.40;97.20
48686;DHT22;34485;51.536;3.816;2023-05-10T14:04:05;18.40;97.00
48686;DHT22;34485;51.536;3.816;2023-05-10T14:06:30;18.30;97.80
48686;DHT22;34485;51.536;3.816;2023-05-10T14:08:56;18.30;98.50
48686;DHT22;34485;51.536;3.816;2023-05-10T14:11:22;18.40;98.10
48686;DHT22;34485;51.536;3.816;2023-05-10T14:13:48;18.70;98.10
48686;DHT22;34485;51.536;3.816;2023-05-10T14:16:14;18.80;97.50
48686;DHT22;34485;51.536;3.816;2023-05-10T14:18:40;18.80;96.80
48686;DHT22;34485;51.536;3.816;2023-05-10T14:21:05;18.90;96.90
48686;DHT22;34485;51.536;3.816;2023-05-10T14:23:31;19.00;96.00
48686;DHT22;34485;51.536;3.816;2023-05-10T14:25:57;18.90;97.20
48686;DHT22;34485;51.536;3.816;2023-05-10T14:28:22;18.90;96.20
48686;DHT22;34485;51.536;3.816;2023-05-10T14:30:49;18.90;95.80
48686;DHT22;34485;51.536;3.816;2023-05-10T14:35:41;18.60;96.80
48686;DHT22;34485;51.536;3.816;2023-05-10T14:38:07;18.60;97.50
48686;DHT22;34485;51.536;3.816;2023-05-10T14:40:33;18.50;97.40
48686;DHT22;34485;51.536;3.816;2023-05-10T14:42:58;18.60;97.40
48686;DHT22;34485;51.536;3.816;2023-05-10T14:45:24;18.70;97.70
48686;DHT22;34485;51.536;3.816;2023-05-10T14:47:50;18.50;97.00
48686;DHT22;34485;51.536;3.816;2023-05-10T14:50:15;18.60;97.90
48686;DHT22;34485;51.536;3.816;2023-05-10T15:00:05;19.20;99.90
48686;DHT22;34485;51.536;3.816;2023-05-10T15:02:31;19.10;96.10
48686;DHT22;34485;51.536;3.816;2023-05-10T15:26:57;18.40;96.30
48686;DHT22;34485;51.536;3.816;2023-05-10T15:29:22;18.30;96.90
48686;DHT22;34485;51.536;3.816;2023-05-10T15:31:50;18.20;97.30
48686;DHT22;34485;51.536;3.816;2023-05-10T15:34:16;18.30;97.80
48686;DHT22;34485;51.536;3.816;2023-05-10T15:36:42;18.20;97.20
48686;DHT22;34485;51.536;3.816;2023-05-10T15:39:07;18.00;97.70
48686;DHT22;34485;51.536;3.816;2023-05-10T15:41:34;18.00;98.50
48686;DHT22;34485;51.536;3.816;2023-05-10T15:44:00;18.00;98.10
48686;DHT22;34485;51.536;3.816;2023-05-10T15:46:27;17.90;97.10
48686;DHT22;34485;51.536;3.816;2023-05-10T15:48:53;17.80;97.50
48686;DHT22;34485;51.536;3.816;2023-05-10T15:51:18;17.70;98.00
48686;DHT22;34485;51.536;3.816;2023-05-10T15:53:44;17.70;98.50
48686;DHT22;34485;51.536;3.816;2023-05-10T15:56:10;17.80;98.50
48686;DHT22;34485;51.536;3.816;2023-05-10T15:58:37;17.70;98.30
48686;DHT22;34485;51.536;3.816;2023-05-10T16:01:03;17.60;98.60
48686;DHT22;34485;51.536;3.816;2023-05-10T16:03:30;17.40;98.60
48686;DHT22;34485;51.536;3.816;2023-05-10T16:05:56;17.30;98.90
48686;DHT22;34485;51.536;3.816;2023-05-10T16:08:21;17.20;99.20
48686;DHT22;34485;51.536;3.816;2023-05-10T16:10:47;17.00;99.90
48686;DHT22;34485;51.536;3.816;2023-05-10T16:13:13;16.90;99.70
48686;DHT22;34485;51.536;3.816;2023-05-10T16:15:40;16.90;99.90
48686;DHT22;34485;51.536;3.816;2023-05-10T16:18:06;16.80;99.90
48686;DHT22;34485;51.536;3.816;2023-05-10T16:20:31;16.80;99.90
48686;DHT22;34485;51.536;3.816;2023-05-10T16:23:03;16.80;99.90
48686;DHT22;34485;51.536;3.816;2023-05-10T16:25:30;16.60;99.90
48686;DHT22;34485;51.536;3.816;2023-05-10T16:27:56;16.60;99.90
48686;DHT22;34485;51.536;3.816;2023-05-10T16:30:21;16.50;99.90
48686;DHT22;34485;51.536;3.816;2023-05-10T16:32:49;16.50;99.90
48686;DHT22;34485;51.536;3.816;2023-05-10T16:35:15;16.50;99.90
48686;DHT22;34485;51.536;3.816;2023-05-10T16:37:40;16.50;99.90
48686;DHT22;34485;51.536;3.816;2023-05-10T16:40:06;16.40;99.90
48686;DHT22;34485;51.536;3.816;2023-05-10T16:42:32;16.40;99.90
48686;DHT22;34485;51.536;3.816;2023-05-10T16:44:58;16.40;99.90
48686;DHT22;34485;51.536;3.816;2023-05-10T16:47:35;16.40;99.90
48686;DHT22;34485;51.536;3.816;2023-05-10T16:50:01;16.40;99.90
48686;DHT22;34485;51.536;3.816;2023-05-10T16:52:27;16.40;99.90
48686;DHT22;34485;51.536;3.816;2023-05-10T16:54:54;16.40;99.90
48686;DHT22;34485;51.536;3.816;2023-05-10T16:57:20;16.60;99.90
48686;DHT22;34485;51.536;3.816;2023-05-10T16:59:45;16.70;99.90
48686;DHT22;34485;51.536;3.816;2023-05-10T17:02:12;16.80;99.90
48686;DHT22;34485;51.536;3.816;2023-05-10T17:04:37;16.90;99.90
48686;DHT22;34485;51.536;3.816;2023-05-10T17:07:03;16.90;99.90
48686;DHT22;34485;51.536;3.816;2023-05-10T17:09:29;17.00;99.90
48686;DHT22;34485;51.536;3.816;2023-05-10T17:11:54;17.00;99.90
48686;DHT22;34485;51.536;3.816;2023-05-10T17:14:20;17.00;99.90
48686;DHT22;34485;51.536;3.816;2023-05-10T17:16:45;17.00;99.90
48686;DHT22;34485;51.536;3.816;2023-05-10T17:19:12;17.10;99.90
48686;DHT22;34485;51.536;3.816;2023-05-10T17:21:38;17.10;99.80
48686;DHT22;34485;51.536;3.816;2023-05-10T17:24:04;17.20;99.70
48686;DHT22;34485;51.536;3.816;2023-05-10T17:26:29;17.30;99.40
48686;DHT22;34485;51.536;3.816;2023-05-10T17:28:55;17.30;99.40
48686;DHT22;34485;51.536;3.816;2023-05-10T17:31:21;17.30;99.40
48686;DHT22;34485;51.536;3.816;2023-05-10T17:33:46;17.30;99.90
48686;DHT22;34485;51.536;3.816;2023-05-10T17:36:12;17.10;99.30
48686;DHT22;34485;51.536;3.816;2023-05-10T17:38:37;17.20;99.50
48686;DHT22;34485;51.536;3.816;2023-05-10T17:41:03;17.20;99.60
48686;DHT22;34485;51.536;3.816;2023-05-10T17:43:29;17.10;99.40
48686;DHT22;34485;51.536;3.816;2023-05-10T17:45:54;17.00;99.80
48686;DHT22;34485;51.536;3.816;2023-05-10T17:48:20;16.80;99.90
48686;DHT22;34485;51.536;3.816;2023-05-10T17:50:49;16.70;99.90
48686;DHT22;34485;51.536;3.816;2023-05-10T17:53:14;16.60;99.90
48686;DHT22;34485;51.536;3.816;2023-05-10T17:55:40;16.40;99.90
48686;DHT22;34485;51.536;3.816;2023-05-10T17:58:07;16.30;99.90
48686;DHT22;34485;51.536;3.816;2023-05-10T18:00:32;16.10;99.90
48686;DHT22;34485;51.536;3.816;2023-05-10T18:02:58;16.00;99.90
48686;DHT22;34485;51.536;3.816;2023-05-10T18:05:23;15.80;99.90